首页
METAR-TAF:

METAR-TAF

机场 :

文尼察, 乌克兰

纬度: 49-14-23N, 经度: 028-36-50E, 海拔: 974米

当前天气观测

该预报发布于41分钟前的06:00 UTC
风速6节,风向北转东北,在东转东北之间变化
温度 22°C
湿度 73%
气压 1025 hPa
能见度10公里或以上
1500米以下无云,无积雨云

METAR: UKWW 250600Z 02003MPS 350V060 CAVOK 22/17 Q1025 NOSIG

时间: 09:41 (06:41 UTC)

预报

该预报发布于1小时和26分钟前的05:15 UTC
预报有效从25日的 06点(UTC)到 25日的 15点(UTC)
风速8节,风向东北,有时为17节阵风
能见度10公里或以上
散云层高于4000英尺

TAF: UKWW 250515Z 2506/2515 04004G09MPS 9999 SCT040 TX29/2513Z TN21/2506Z

超过4000个机场的气象观测和天气预报(METAR&TAF报告)。

可查询的气象台以黄色和红色小点在地图上表示。

将鼠标移到小点上方,可查看气象台名称。

然后点击查看天气观测和预报。

如需切换地图:点击带黑十字的绿色按钮放大地图;点击带横线的绿色按钮缩小地图;或者点击绿色箭头查看邻近地区的地图。


METAR-TAF: